sensor_id;sensor_type;location;lat;lon;timestamp;temperature;humidity
58469;DHT22;44257;44.804;10.220;2024-01-07T00:01:08;7.30;99.90
58469;DHT22;44257;44.804;10.220;2024-01-07T00:03:35;7.30;99.90
58469;DHT22;44257;44.804;10.220;2024-01-07T00:06:01;7.40;99.90
58469;DHT22;44257;44.804;10.220;2024-01-07T00:08:27;7.40;99.90
58469;DHT22;44257;44.804;10.220;2024-01-07T00:10:53;7.30;99.90
58469;DHT22;44257;44.804;10.220;2024-01-07T00:13:19;7.40;99.90
58469;DHT22;44257;44.804;10.220;2024-01-07T00:15:45;7.30;99.90
58469;DHT22;44257;44.804;10.220;2024-01-07T00:18:10;7.40;99.90
58469;DHT22;44257;44.804;10.220;2024-01-07T00:20:36;7.40;99.90
58469;DHT22;44257;44.804;10.220;2024-01-07T00:23:02;7.40;99.90
58469;DHT22;44257;44.804;10.220;2024-01-07T00:25:28;7.30;99.90
58469;DHT22;44257;44.804;10.220;2024-01-07T00:27:54;7.30;99.90
58469;DHT22;44257;44.804;10.220;2024-01-07T00:30:21;7.30;99.90
58469;DHT22;44257;44.804;10.220;2024-01-07T00:32:47;7.40;99.90
58469;DHT22;44257;44.804;10.220;2024-01-07T00:35:13;7.30;99.90
58469;DHT22;44257;44.804;10.220;2024-01-07T00:37:38;7.30;99.90
58469;DHT22;44257;44.804;10.220;2024-01-07T00:40:05;7.30;99.90
58469;DHT22;44257;44.804;10.220;2024-01-07T00:42:32;7.40;99.90
58469;DHT22;44257;44.804;10.220;2024-01-07T00:44:58;7.40;99.90
58469;DHT22;44257;44.804;10.220;2024-01-07T00:47:23;7.40;99.90
58469;DHT22;44257;44.804;10.220;2024-01-07T00:49:50;7.40;99.90
58469;DHT22;44257;44.804;10.220;2024-01-07T00:52:15;7.40;99.90
58469;DHT22;44257;44.804;10.220;2024-01-07T00:54:41;7.40;99.90
58469;DHT22;44257;44.804;10.220;2024-01-07T00:57:07;7.40;99.90
58469;DHT22;44257;44.804;10.220;2024-01-07T00:59:33;7.40;99.90
58469;DHT22;44257;44.804;10.220;2024-01-07T01:01:59;7.40;99.90
58469;DHT22;44257;44.804;10.220;2024-01-07T01:04:25;7.40;99.90
58469;DHT22;44257;44.804;10.220;2024-01-07T01:06:51;7.40;99.90
58469;DHT22;44257;44.804;10.220;2024-01-07T01:09:17;7.40;99.90
58469;DHT22;44257;44.804;10.220;2024-01-07T01:11:42;7.40;99.90
58469;DHT22;44257;44.804;10.220;2024-01-07T01:14:08;7.40;99.90
58469;DHT22;44257;44.804;10.220;2024-01-07T01:16:34;7.40;99.90
58469;DHT22;44257;44.804;10.220;2024-01-07T01:19:00;7.40;99.90
58469;DHT22;44257;44.804;10.220;2024-01-07T01:21:26;7.40;99.90
58469;DHT22;44257;44.804;10.220;2024-01-07T01:23:52;7.40;99.90
58469;DHT22;44257;44.804;10.220;2024-01-07T01:26:17;7.40;99.90
58469;DHT22;44257;44.804;10.220;2024-01-07T01:28:43;7.40;99.90
58469;DHT22;44257;44.804;10.220;2024-01-07T01:31:13;7.40;99.90
58469;DHT22;44257;44.804;10.220;2024-01-07T01:33:40;7.40;99.90
58469;DHT22;44257;44.804;10.220;2024-01-07T01:36:06;7.40;99.90
58469;DHT22;44257;44.804;10.220;2024-01-07T01:38:32;7.40;99.90
58469;DHT22;44257;44.804;10.220;2024-01-07T01:40:58;7.40;99.90
58469;DHT22;44257;44.804;10.220;2024-01-07T01:43:25;7.40;99.90
58469;DHT22;44257;44.804;10.220;2024-01-07T01:45:55;7.40;99.90
58469;DHT22;44257;44.804;10.220;2024-01-07T01:48:22;7.40;99.90
58469;DHT22;44257;44.804;10.220;2024-01-07T01:50:48;7.40;99.90
58469;DHT22;44257;44.804;10.220;2024-01-07T01:53:15;7.40;99.90
58469;DHT22;44257;44.804;10.220;2024-01-07T01:55:42;7.50;99.90
58469;DHT22;44257;44.804;10.220;2024-01-07T01:58:13;7.40;99.90
58469;DHT22;44257;44.804;10.220;2024-01-07T02:00:40;7.40;99.90
58469;DHT22;44257;44.804;10.220;2024-01-07T02:03:06;7.40;99.90
58469;DHT22;44257;44.804;10.220;2024-01-07T02:05:32;7.40;99.90
58469;DHT22;44257;44.804;10.220;2024-01-07T02:07:58;7.40;99.90
58469;DHT22;44257;44.804;10.220;2024-01-07T02:10:24;7.40;99.90
58469;DHT22;44257;44.804;10.220;2024-01-07T02:12:50;7.40;99.90
58469;DHT22;44257;44.804;10.220;2024-01-07T02:15:16;7.40;99.90
58469;DHT22;44257;44.804;10.220;2024-01-07T02:17:42;7.40;99.90
58469;DHT22;44257;44.804;10.220;2024-01-07T02:20:09;7.40;99.90
58469;DHT22;44257;44.804;10.220;2024-01-07T02:22:35;7.40;99.90
58469;DHT22;44257;44.804;10.220;2024-01-07T02:25:00;7.40;99.90
58469;DHT22;44257;44.804;10.220;2024-01-07T02:27:27;7.40;99.90
58469;DHT22;44257;44.804;10.220;2024-01-07T02:29:52;7.40;99.90
58469;DHT22;44257;44.804;10.220;2024-01-07T02:32:18;7.40;99.90
58469;DHT22;44257;44.804;10.220;2024-01-07T02:34:44;7.40;99.90
58469;DHT22;44257;44.804;10.220;2024-01-07T02:37:11;7.40;99.90
58469;DHT22;44257;44.804;10.220;2024-01-07T02:39:37;7.40;99.90
58469;DHT22;44257;44.804;10.220;2024-01-07T02:42:03;7.40;99.90
58469;DHT22;44257;44.804;10.220;2024-01-07T02:44:30;7.40;99.90
58469;DHT22;44257;44.804;10.220;2024-01-07T02:46:55;7.30;99.90
58469;DHT22;44257;44.804;10.220;2024-01-07T02:49:21;7.30;99.90
58469;DHT22;44257;44.804;10.220;2024-01-07T02:51:47;7.30;99.90
58469;DHT22;44257;44.804;10.220;2024-01-07T02:54:15;7.30;99.90
58469;DHT22;44257;44.804;10.220;2024-01-07T02:56:41;7.30;99.90
58469;DHT22;44257;44.804;10.220;2024-01-07T02:59:07;7.40;99.90
58469;DHT22;44257;44.804;10.220;2024-01-07T03:01:33;7.40;99.90
58469;DHT22;44257;44.804;10.220;2024-01-07T03:04:07;7.40;99.90
58469;DHT22;44257;44.804;10.220;2024-01-07T03:06:33;7.30;99.90
58469;DHT22;44257;44.804;10.220;2024-01-07T03:08:59;7.30;99.90
58469;DHT22;44257;44.804;10.220;2024-01-07T03:11:25;7.30;99.90
58469;DHT22;44257;44.804;10.220;2024-01-07T03:13:51;7.30;99.90
58469;DHT22;44257;44.804;10.220;2024-01-07T03:16:24;7.20;99.90
58469;DHT22;44257;44.804;10.220;2024-01-07T03:18:50;7.20;99.90
58469;DHT22;44257;44.804;10.220;2024-01-07T03:21:20;7.20;99.90
58469;DHT22;44257;44.804;10.220;2024-01-07T03:23:47;7.20;99.90
58469;DHT22;44257;44.804;10.220;2024-01-07T03:26:13;7.20;99.90
58469;DHT22;44257;44.804;10.220;2024-01-07T03:28:39;7.10;99.90
58469;DHT22;44257;44.804;10.220;2024-01-07T03:31:09;7.20;99.90
58469;DHT22;44257;44.804;10.220;2024-01-07T03:33:37;7.10;99.90
58469;DHT22;44257;44.804;10.220;2024-01-07T03:36:11;7.10;99.90
58469;DHT22;44257;44.804;10.220;2024-01-07T03:38:37;7.10;99.90
58469;DHT22;44257;44.804;10.220;2024-01-07T03:41:03;7.10;99.90
58469;DHT22;44257;44.804;10.220;2024-01-07T03:43:30;7.10;99.90
58469;DHT22;44257;44.804;10.220;2024-01-07T03:45:56;7.00;99.90
58469;DHT22;44257;44.804;10.220;2024-01-07T03:48:22;7.00;99.90
58469;DHT22;44257;44.804;10.220;2024-01-07T03:50:47;7.00;99.90
58469;DHT22;44257;44.804;10.220;2024-01-07T03:53:14;7.00;99.90
58469;DHT22;44257;44.804;10.220;2024-01-07T03:55:40;6.90;99.90
58469;DHT22;44257;44.804;10.220;2024-01-07T03:58:06;6.90;99.90
58469;DHT22;44257;44.804;10.220;2024-01-07T04:00:32;6.90;99.90
58469;DHT22;44257;44.804;10.220;2024-01-07T04:02:58;6.90;99.90
58469;DHT22;44257;44.804;10.220;2024-01-07T04:05:24;6.80;99.90
58469;DHT22;44257;44.804;10.220;2024-01-07T04:07:50;6.80;99.90
58469;DHT22;44257;44.804;10.220;2024-01-07T04:10:17;6.80;99.90
58469;DHT22;44257;44.804;10.220;2024-01-07T04:12:43;6.80;99.90
58469;DHT22;44257;44.804;10.220;2024-01-07T04:15:10;6.80;99.90
58469;DHT22;44257;44.804;10.220;2024-01-07T04:17:35;6.80;99.90
58469;DHT22;44257;44.804;10.220;2024-01-07T04:20:01;6.80;99.90
58469;DHT22;44257;44.804;10.220;2024-01-07T04:22:27;6.70;99.90
58469;DHT22;44257;44.804;10.220;2024-01-07T04:24:53;6.70;99.90
58469;DHT22;44257;44.804;10.220;2024-01-07T04:27:19;6.70;99.90
58469;DHT22;44257;44.804;10.220;2024-01-07T04:29:45;6.70;99.90
58469;DHT22;44257;44.804;10.220;2024-01-07T04:32:11;6.60;99.90
58469;DHT22;44257;44.804;10.220;2024-01-07T04:34:36;6.60;99.90
58469;DHT22;44257;44.804;10.220;2024-01-07T04:37:02;6.60;99.90
58469;DHT22;44257;44.804;10.220;2024-01-07T04:39:28;6.60;99.90
58469;DHT22;44257;44.804;10.220;2024-01-07T04:41:54;6.60;99.90
58469;DHT22;44257;44.804;10.220;2024-01-07T04:44:20;6.60;99.90
58469;DHT22;44257;44.804;10.220;2024-01-07T04:46:48;6.60;99.90
58469;DHT22;44257;44.804;10.220;2024-01-07T04:49:14;6.60;99.90
58469;DHT22;44257;44.804;10.220;2024-01-07T04:51:40;6.60;99.90
58469;DHT22;44257;44.804;10.220;2024-01-07T04:54:06;6.60;99.90
58469;DHT22;44257;44.804;10.220;2024-01-07T04:56:32;6.60;99.90
58469;DHT22;44257;44.804;10.220;2024-01-07T04:58:58;6.60;99.90
58469;DHT22;44257;44.804;10.220;2024-01-07T05:01:24;6.60;99.90
58469;DHT22;44257;44.804;10.220;2024-01-07T05:03:50;6.60;99.90
58469;DHT22;44257;44.804;10.220;2024-01-07T05:06:16;6.50;99.90
58469;DHT22;44257;44.804;10.220;2024-01-07T05:08:42;6.50;99.90
58469;DHT22;44257;44.804;10.220;2024-01-07T05:11:08;6.60;99.90
58469;DHT22;44257;44.804;10.220;2024-01-07T05:13:34;6.60;99.90
58469;DHT22;44257;44.804;10.220;2024-01-07T05:16:00;6.60;99.90
58469;DHT22;44257;44.804;10.220;2024-01-07T05:18:26;6.60;99.90
58469;DHT22;44257;44.804;10.220;2024-01-07T05:20:52;6.60;99.90
58469;DHT22;44257;44.804;10.220;2024-01-07T05:23:18;6.60;99.90
58469;DHT22;44257;44.804;10.220;2024-01-07T05:25:45;6.60;99.90
58469;DHT22;44257;44.804;10.220;2024-01-07T05:28:14;6.70;99.90
58469;DHT22;44257;44.804;10.220;2024-01-07T05:30:43;6.70;99.90
58469;DHT22;44257;44.804;10.220;2024-01-07T05:33:09;6.70;99.90
58469;DHT22;44257;44.804;10.220;2024-01-07T05:35:35;6.70;99.90
58469;DHT22;44257;44.804;10.220;2024-01-07T05:38:01;6.70;99.90
58469;DHT22;44257;44.804;10.220;2024-01-07T05:40:27;6.60;99.90
58469;DHT22;44257;44.804;10.220;2024-01-07T05:42:53;6.60;99.90
58469;DHT22;44257;44.804;10.220;2024-01-07T05:45:19;6.60;99.90
58469;DHT22;44257;44.804;10.220;2024-01-07T05:47:45;6.60;99.90
58469;DHT22;44257;44.804;10.220;2024-01-07T05:50:11;6.60;99.90
58469;DHT22;44257;44.804;10.220;2024-01-07T05:52:40;6.70;99.90
58469;DHT22;44257;44.804;10.220;2024-01-07T05:55:07;6.70;99.90
58469;DHT22;44257;44.804;10.220;2024-01-07T05:57:32;6.70;99.90
58469;DHT22;44257;44.804;10.220;2024-01-07T05:59:58;6.70;99.90
58469;DHT22;44257;44.804;10.220;2024-01-07T06:02:24;6.70;99.90
58469;DHT22;44257;44.804;10.220;2024-01-07T06:04:50;6.70;99.90
58469;DHT22;44257;44.804;10.220;2024-01-07T06:07:16;6.70;99.90
58469;DHT22;44257;44.804;10.220;2024-01-07T06:09:42;6.70;99.90
58469;DHT22;44257;44.804;10.220;2024-01-07T06:12:08;6.70;99.90
58469;DHT22;44257;44.804;10.220;2024-01-07T06:14:35;6.70;99.90
58469;DHT22;44257;44.804;10.220;2024-01-07T06:17:00;6.70;99.90
58469;DHT22;44257;44.804;10.220;2024-01-07T06:19:26;6.70;99.90
58469;DHT22;44257;44.804;10.220;2024-01-07T06:21:52;6.70;99.90
58469;DHT22;44257;44.804;10.220;2024-01-07T06:24:18;6.70;99.90
58469;DHT22;44257;44.804;10.220;2024-01-07T06:26:44;6.70;99.90
58469;DHT22;44257;44.804;10.220;2024-01-07T06:29:09;6.70;99.90
58469;DHT22;44257;44.804;10.220;2024-01-07T06:31:35;6.70;99.90
58469;DHT22;44257;44.804;10.220;2024-01-07T06:34:01;6.70;99.90
58469;DHT22;44257;44.804;10.220;2024-01-07T06:36:27;6.70;99.90
58469;DHT22;44257;44.804;10.220;2024-01-07T06:38:53;6.70;99.90
58469;DHT22;44257;44.804;10.220;2024-01-07T06:41:19;6.70;99.90
58469;DHT22;44257;44.804;10.220;2024-01-07T06:43:44;6.80;99.90
58469;DHT22;44257;44.804;10.220;2024-01-07T06:46:10;6.80;99.90
58469;DHT22;44257;44.804;10.220;2024-01-07T06:48:36;6.80;99.90
58469;DHT22;44257;44.804;10.220;2024-01-07T06:51:02;6.70;99.90
58469;DHT22;44257;44.804;10.220;2024-01-07T06:53:28;6.70;99.90
58469;DHT22;44257;44.804;10.220;2024-01-07T06:55:54;6.80;99.90
58469;DHT22;44257;44.804;10.220;2024-01-07T06:58:20;6.70;99.90
58469;DHT22;44257;44.804;10.220;2024-01-07T07:00:46;6.70;99.90
58469;DHT22;44257;44.804;10.220;2024-01-07T07:03:12;6.70;99.90
58469;DHT22;44257;44.804;10.220;2024-01-07T07:05:37;6.80;99.90
58469;DHT22;44257;44.804;10.220;2024-01-07T07:08:04;6.80;99.90
58469;DHT22;44257;44.804;10.220;2024-01-07T07:10:30;6.80;99.90
58469;DHT22;44257;44.804;10.220;2024-01-07T07:12:57;6.80;99.90
58469;DHT22;44257;44.804;10.220;2024-01-07T07:15:23;6.80;99.90
58469;DHT22;44257;44.804;10.220;2024-01-07T07:17:52;6.80;99.90
58469;DHT22;44257;44.804;10.220;2024-01-07T07:20:18;6.90;99.90
58469;DHT22;44257;44.804;10.220;2024-01-07T07:22:44;6.90;99.90
58469;DHT22;44257;44.804;10.220;2024-01-07T07:25:09;6.90;99.90
58469;DHT22;44257;44.804;10.220;2024-01-07T07:27:35;6.90;99.90
58469;DHT22;44257;44.804;10.220;2024-01-07T07:30:01;7.00;99.90
58469;DHT22;44257;44.804;10.220;2024-01-07T07:32:27;7.00;99.90
58469;DHT22;44257;44.804;10.220;2024-01-07T07:34:53;7.00;99.90
58469;DHT22;44257;44.804;10.220;2024-01-07T07:37:19;7.00;99.90
58469;DHT22;44257;44.804;10.220;2024-01-07T07:39:44;7.10;99.90
58469;DHT22;44257;44.804;10.220;2024-01-07T07:42:10;7.10;99.90
58469;DHT22;44257;44.804;10.220;2024-01-07T07:44:37;7.10;99.90
58469;DHT22;44257;44.804;10.220;2024-01-07T07:47:04;7.10;99.90
58469;DHT22;44257;44.804;10.220;2024-01-07T07:49:31;7.10;99.90
58469;DHT22;44257;44.804;10.220;2024-01-07T07:51:56;7.10;99.90
58469;DHT22;44257;44.804;10.220;2024-01-07T07:54:22;7.10;99.90
58469;DHT22;44257;44.804;10.220;2024-01-07T07:56:48;7.10;99.90
58469;DHT22;44257;44.804;10.220;2024-01-07T07:59:14;7.10;99.90
58469;DHT22;44257;44.804;10.220;2024-01-07T08:01:40;7.10;99.90
58469;DHT22;44257;44.804;10.220;2024-01-07T08:04:06;7.10;99.90
58469;DHT22;44257;44.804;10.220;2024-01-07T08:06:31;7.10;99.90
58469;DHT22;44257;44.804;10.220;2024-01-07T08:08:57;7.10;99.90
58469;DHT22;44257;44.804;10.220;2024-01-07T08:11:23;7.10;99.90
58469;DHT22;44257;44.804;10.220;2024-01-07T08:13:50;7.20;99.90
58469;DHT22;44257;44.804;10.220;2024-01-07T08:16:16;7.20;99.90
58469;DHT22;44257;44.804;10.220;2024-01-07T08:18:41;7.20;99.90
58469;DHT22;44257;44.804;10.220;2024-01-07T08:21:07;7.20;99.90
58469;DHT22;44257;44.804;10.220;2024-01-07T08:23:33;7.20;99.90
58469;DHT22;44257;44.804;10.220;2024-01-07T08:25:59;7.30;99.90
58469;DHT22;44257;44.804;10.220;2024-01-07T08:28:25;7.30;99.90
58469;DHT22;44257;44.804;10.220;2024-01-07T08:30:51;7.30;99.90
58469;DHT22;44257;44.804;10.220;2024-01-07T08:33:19;7.30;99.90
58469;DHT22;44257;44.804;10.220;2024-01-07T08:35:44;7.40;99.90
58469;DHT22;44257;44.804;10.220;2024-01-07T08:38:10;7.40;99.90
58469;DHT22;44257;44.804;10.220;2024-01-07T08:40:37;7.40;99.90
58469;DHT22;44257;44.804;10.220;2024-01-07T08:43:03;7.50;99.90
58469;DHT22;44257;44.804;10.220;2024-01-07T08:45:28;7.50;99.90
58469;DHT22;44257;44.804;10.220;2024-01-07T08:47:54;7.50;99.90
58469;DHT22;44257;44.804;10.220;2024-01-07T08:50:20;7.50;99.90
58469;DHT22;44257;44.804;10.220;2024-01-07T08:52:47;7.50;99.90
58469;DHT22;44257;44.804;10.220;2024-01-07T08:55:13;7.60;99.90
58469;DHT22;44257;44.804;10.220;2024-01-07T08:57:39;7.60;99.90
58469;DHT22;44257;44.804;10.220;2024-01-07T09:00:06;7.70;99.90
58469;DHT22;44257;44.804;10.220;2024-01-07T09:02:35;7.70;99.90
58469;DHT22;44257;44.804;10.220;2024-01-07T09:05:01;7.80;99.90
58469;DHT22;44257;44.804;10.220;2024-01-07T09:07:27;7.90;99.90
58469;DHT22;44257;44.804;10.220;2024-01-07T09:09:53;7.90;99.90
58469;DHT22;44257;44.804;10.220;2024-01-07T09:12:21;8.00;99.90
58469;DHT22;44257;44.804;10.220;2024-01-07T09:14:46;8.10;99.90
58469;DHT22;44257;44.804;10.220;2024-01-07T09:17:12;8.10;99.90
58469;DHT22;44257;44.804;10.220;2024-01-07T09:19:38;8.20;99.90
58469;DHT22;44257;44.804;10.220;2024-01-07T09:22:04;8.20;99.90
58469;DHT22;44257;44.804;10.220;2024-01-07T09:24:30;8.30;99.90
58469;DHT22;44257;44.804;10.220;2024-01-07T09:26:56;8.30;99.90
58469;DHT22;44257;44.804;10.220;2024-01-07T09:29:22;8.30;99.90
58469;DHT22;44257;44.804;10.220;2024-01-07T09:31:49;8.40;99.90
58469;DHT22;44257;44.804;10.220;2024-01-07T09:34:15;8.40;99.90
58469;DHT22;44257;44.804;10.220;2024-01-07T09:36:41;8.40;99.90
58469;DHT22;44257;44.804;10.220;2024-01-07T09:39:07;8.50;99.90
58469;DHT22;44257;44.804;10.220;2024-01-07T09:41:33;8.50;99.90
58469;DHT22;44257;44.804;10.220;2024-01-07T09:43:59;8.50;99.90
58469;DHT22;44257;44.804;10.220;2024-01-07T09:46:26;8.50;99.90
58469;DHT22;44257;44.804;10.220;2024-01-07T09:48:54;8.50;99.90
58469;DHT22;44257;44.804;10.220;2024-01-07T09:51:22;8.50;99.90
58469;DHT22;44257;44.804;10.220;2024-01-07T09:53:48;8.50;99.90
58469;DHT22;44257;44.804;10.220;2024-01-07T09:56:20;8.50;99.90
58469;DHT22;44257;44.804;10.220;2024-01-07T09:58:48;8.50;99.90
58469;DHT22;44257;44.804;10.220;2024-01-07T10:01:18;8.60;99.90
58469;DHT22;44257;44.804;10.220;2024-01-07T10:03:45;8.60;99.90
58469;DHT22;44257;44.804;10.220;2024-01-07T10:06:11;8.60;99.90
58469;DHT22;44257;44.804;10.220;2024-01-07T10:08:38;8.70;99.90
58469;DHT22;44257;44.804;10.220;2024-01-07T10:11:04;8.70;99.90
58469;DHT22;44257;44.804;10.220;2024-01-07T10:13:31;8.70;99.90
58469;DHT22;44257;44.804;10.220;2024-01-07T10:15:57;8.80;99.90
58469;DHT22;44257;44.804;10.220;2024-01-07T10:18:23;8.70;99.90
58469;DHT22;44257;44.804;10.220;2024-01-07T10:20:49;8.70;99.90
58469;DHT22;44257;44.804;10.220;2024-01-07T10:23:19;8.60;99.90
58469;DHT22;44257;44.804;10.220;2024-01-07T10:25:45;8.60;99.90
58469;DHT22;44257;44.804;10.220;2024-01-07T10:28:11;8.60;99.90
58469;DHT22;44257;44.804;10.220;2024-01-07T10:30:40;8.60;99.90
58469;DHT22;44257;44.804;10.220;2024-01-07T10:33:07;8.60;99.90
58469;DHT22;44257;44.804;10.220;2024-01-07T10:35:35;8.60;99.90
58469;DHT22;44257;44.804;10.220;2024-01-07T10:38:02;8.60;99.90
58469;DHT22;44257;44.804;10.220;2024-01-07T10:40:30;8.60;99.90
58469;DHT22;44257;44.804;10.220;2024-01-07T10:42:56;8.60;99.90
58469;DHT22;44257;44.804;10.220;2024-01-07T10:45:23;8.60;99.90
58469;DHT22;44257;44.804;10.220;2024-01-07T10:47:49;8.60;99.90
58469;DHT22;44257;44.804;10.220;2024-01-07T10:50:19;8.60;99.90
58469;DHT22;44257;44.804;10.220;2024-01-07T10:52:50;8.60;99.90
58469;DHT22;44257;44.804;10.220;2024-01-07T10:55:18;8.60;99.90
58469;DHT22;44257;44.804;10.220;2024-01-07T10:57:48;8.60;99.90
58469;DHT22;44257;44.804;10.220;2024-01-07T11:00:16;8.60;99.90
58469;DHT22;44257;44.804;10.220;2024-01-07T11:03:11;8.70;99.90
58469;DHT22;44257;44.804;10.220;2024-01-07T11:05:50;8.70;99.90
58469;DHT22;44257;44.804;10.220;2024-01-07T11:08:41;8.70;99.90
58469;DHT22;44257;44.804;10.220;2024-01-07T11:11:31;8.70;99.90
58469;DHT22;44257;44.804;10.220;2024-01-07T11:13:59;8.70;99.90
58469;DHT22;44257;44.804;10.220;2024-01-07T11:16:42;8.70;99.90
58469;DHT22;44257;44.804;10.220;2024-01-07T11:19:14;8.70;99.90
58469;DHT22;44257;44.804;10.220;2024-01-07T11:21:40;8.70;99.90
58469;DHT22;44257;44.804;10.220;2024-01-07T11:24:06;8.60;99.90
58469;DHT22;44257;44.804;10.220;2024-01-07T11:26:32;8.60;99.90
58469;DHT22;44257;44.804;10.220;2024-01-07T11:28:58;8.50;99.90
58469;DHT22;44257;44.804;10.220;2024-01-07T11:31:44;8.40;99.90
58469;DHT22;44257;44.804;10.220;2024-01-07T11:34:39;8.40;99.90
58469;DHT22;44257;44.804;10.220;2024-01-07T11:37:15;8.40;99.90
58469;DHT22;44257;44.804;10.220;2024-01-07T11:39:45;8.30;99.90
58469;DHT22;44257;44.804;10.220;2024-01-07T11:42:11;8.30;99.90
58469;DHT22;44257;44.804;10.220;2024-01-07T11:44:45;8.30;99.90
58469;DHT22;44257;44.804;10.220;2024-01-07T11:47:13;8.40;99.90
58469;DHT22;44257;44.804;10.220;2024-01-07T11:49:39;8.40;99.90
58469;DHT22;44257;44.804;10.220;2024-01-07T11:52:05;8.40;99.90
58469;DHT22;44257;44.804;10.220;2024-01-07T11:54:31;8.40;99.90
58469;DHT22;44257;44.804;10.220;2024-01-07T11:56:57;8.50;99.90
58469;DHT22;44257;44.804;10.220;2024-01-07T11:59:23;8.40;99.90
58469;DHT22;44257;44.804;10.220;2024-01-07T12:01:50;8.50;99.90
58469;DHT22;44257;44.804;10.220;2024-01-07T12:04:16;8.40;99.90
58469;DHT22;44257;44.804;10.220;2024-01-07T12:06:42;8.40;99.90
58469;DHT22;44257;44.804;10.220;2024-01-07T12:09:08;8.40;99.90
58469;DHT22;44257;44.804;10.220;2024-01-07T12:11:37;8.40;99.90
58469;DHT22;44257;44.804;10.220;2024-01-07T12:14:04;8.40;99.90
58469;DHT22;44257;44.804;10.220;2024-01-07T12:16:30;8.30;99.90
58469;DHT22;44257;44.804;10.220;2024-01-07T12:18:56;8.30;99.90
58469;DHT22;44257;44.804;10.220;2024-01-07T12:21:22;8.30;99.90
58469;DHT22;44257;44.804;10.220;2024-01-07T12:23:49;8.30;99.90
58469;DHT22;44257;44.804;10.220;2024-01-07T12:26:16;8.30;99.90
58469;DHT22;44257;44.804;10.220;2024-01-07T12:28:44;8.30;99.90
58469;DHT22;44257;44.804;10.220;2024-01-07T12:31:11;8.40;99.90
58469;DHT22;44257;44.804;10.220;2024-01-07T12:33:40;8.40;99.90
58469;DHT22;44257;44.804;10.220;2024-01-07T12:36:07;8.40;99.90
58469;DHT22;44257;44.804;10.220;2024-01-07T12:38:33;8.30;99.90
58469;DHT22;44257;44.804;10.220;2024-01-07T12:40:59;8.30;99.90
58469;DHT22;44257;44.804;10.220;2024-01-07T12:43:24;8.40;99.90
58469;DHT22;44257;44.804;10.220;2024-01-07T12:45:51;8.40;99.90
58469;DHT22;44257;44.804;10.220;2024-01-07T12:48:16;8.30;99.90
58469;DHT22;44257;44.804;10.220;2024-01-07T12:50:42;8.30;99.90
58469;DHT22;44257;44.804;10.220;2024-01-07T12:53:09;8.30;99.90
58469;DHT22;44257;44.804;10.220;2024-01-07T12:55:35;8.30;99.90
58469;DHT22;44257;44.804;10.220;2024-01-07T12:58:01;8.30;99.90
58469;DHT22;44257;44.804;10.220;2024-01-07T13:00:27;8.30;99.90
58469;DHT22;44257;44.804;10.220;2024-01-07T13:02:54;8.30;99.90
58469;DHT22;44257;44.804;10.220;2024-01-07T13:05:21;8.30;99.90
58469;DHT22;44257;44.804;10.220;2024-01-07T13:07:47;8.30;99.90
58469;DHT22;44257;44.804;10.220;2024-01-07T13:10:13;8.40;99.90
58469;DHT22;44257;44.804;10.220;2024-01-07T13:12:40;8.40;99.90
58469;DHT22;44257;44.804;10.220;2024-01-07T13:15:06;8.40;99.90
58469;DHT22;44257;44.804;10.220;2024-01-07T13:17:32;8.40;99.90
58469;DHT22;44257;44.804;10.220;2024-01-07T13:19:59;8.40;99.90
58469;DHT22;44257;44.804;10.220;2024-01-07T13:22:25;8.40;99.90
58469;DHT22;44257;44.804;10.220;2024-01-07T13:24:51;8.40;99.90
58469;DHT22;44257;44.804;10.220;2024-01-07T13:27:17;8.50;99.90
58469;DHT22;44257;44.804;10.220;2024-01-07T13:29:44;8.50;99.90
58469;DHT22;44257;44.804;10.220;2024-01-07T13:32:13;8.50;99.90
58469;DHT22;44257;44.804;10.220;2024-01-07T13:34:45;8.40;99.90
58469;DHT22;44257;44.804;10.220;2024-01-07T13:37:11;8.40;99.90
58469;DHT22;44257;44.804;10.220;2024-01-07T13:39:38;8.40;99.90
58469;DHT22;44257;44.804;10.220;2024-01-07T13:42:04;8.40;99.90
58469;DHT22;44257;44.804;10.220;2024-01-07T13:44:30;8.40;99.90
58469;DHT22;44257;44.804;10.220;2024-01-07T13:46:56;8.50;99.90
58469;DHT22;44257;44.804;10.220;2024-01-07T13:49:22;8.40;99.90
58469;DHT22;44257;44.804;10.220;2024-01-07T13:51:48;8.40;99.90
58469;DHT22;44257;44.804;10.220;2024-01-07T13:54:14;8.40;99.90
58469;DHT22;44257;44.804;10.220;2024-01-07T13:56:41;8.40;99.90
58469;DHT22;44257;44.804;10.220;2024-01-07T13:59:11;8.40;99.90
58469;DHT22;44257;44.804;10.220;2024-01-07T14:01:37;8.40;99.90
58469;DHT22;44257;44.804;10.220;2024-01-07T14:04:03;8.40;99.90
58469;DHT22;44257;44.804;10.220;2024-01-07T14:06:30;8.30;99.90
58469;DHT22;44257;44.804;10.220;2024-01-07T14:08:56;8.30;99.90
58469;DHT22;44257;44.804;10.220;2024-01-07T14:11:22;8.40;99.90
58469;DHT22;44257;44.804;10.220;2024-01-07T14:13:48;8.30;99.90
58469;DHT22;44257;44.804;10.220;2024-01-07T14:16:14;8.40;99.90
58469;DHT22;44257;44.804;10.220;2024-01-07T14:18:40;8.40;99.90
58469;DHT22;44257;44.804;10.220;2024-01-07T14:21:06;8.40;99.90
58469;DHT22;44257;44.804;10.220;2024-01-07T14:23:33;8.40;99.90
58469;DHT22;44257;44.804;10.220;2024-01-07T14:26:00;8.40;99.90
58469;DHT22;44257;44.804;10.220;2024-01-07T14:28:26;8.40;99.90
58469;DHT22;44257;44.804;10.220;2024-01-07T14:30:52;8.40;99.90
58469;DHT22;44257;44.804;10.220;2024-01-07T14:33:18;8.40;99.90
58469;DHT22;44257;44.804;10.220;2024-01-07T14:35:44;8.30;99.90
58469;DHT22;44257;44.804;10.220;2024-01-07T14:38:10;8.30;99.90
58469;DHT22;44257;44.804;10.220;2024-01-07T14:40:36;8.30;99.90
58469;DHT22;44257;44.804;10.220;2024-01-07T14:43:02;8.30;99.90
58469;DHT22;44257;44.804;10.220;2024-01-07T14:45:28;8.30;99.90
58469;DHT22;44257;44.804;10.220;2024-01-07T14:47:54;8.30;99.90
58469;DHT22;44257;44.804;10.220;2024-01-07T14:50:21;8.30;99.90
58469;DHT22;44257;44.804;10.220;2024-01-07T14:52:47;8.20;99.90
58469;DHT22;44257;44.804;10.220;2024-01-07T14:55:14;8.20;99.90
58469;DHT22;44257;44.804;10.220;2024-01-07T14:57:41;8.20;99.90
58469;DHT22;44257;44.804;10.220;2024-01-07T15:00:07;8.10;99.90
58469;DHT22;44257;44.804;10.220;2024-01-07T15:02:34;8.00;99.90
58469;DHT22;44257;44.804;10.220;2024-01-07T15:05:01;8.00;99.90
58469;DHT22;44257;44.804;10.220;2024-01-07T15:07:27;8.00;99.90
58469;DHT22;44257;44.804;10.220;2024-01-07T15:09:53;7.90;99.90
58469;DHT22;44257;44.804;10.220;2024-01-07T15:12:18;8.00;99.90
58469;DHT22;44257;44.804;10.220;2024-01-07T15:14:45;7.90;99.90
58469;DHT22;44257;44.804;10.220;2024-01-07T15:17:11;7.90;99.90
58469;DHT22;44257;44.804;10.220;2024-01-07T15:19:37;7.90;99.90
58469;DHT22;44257;44.804;10.220;2024-01-07T15:22:03;7.80;99.90
58469;DHT22;44257;44.804;10.220;2024-01-07T15:24:29;7.80;99.90
58469;DHT22;44257;44.804;10.220;2024-01-07T15:26:55;7.80;99.90